sensor_id;sensor_type;location;lat;lon;timestamp;P1;durP1;ratioP1;P2;durP2;ratioP2
64903;SDS011;51401;48.882;12.598;2023-10-31T00:00:06;6.30;;;5.20;;
64903;SDS011;51401;48.882;12.598;2023-10-31T00:05:02;7.63;;;5.47;;
64903;SDS011;51401;48.882;12.598;2023-10-31T00:07:28;7.45;;;5.95;;
64903;SDS011;51401;48.882;12.598;2023-10-31T00:09:54;6.95;;;5.57;;
64903;SDS011;51401;48.882;12.598;2023-10-31T00:12:20;7.15;;;5.70;;
64903;SDS011;51401;48.882;12.598;2023-10-31T00:14:45;6.22;;;5.07;;
64903;SDS011;51401;48.882;12.598;2023-10-31T00:17:10;8.18;;;5.90;;
64903;SDS011;51401;48.882;12.598;2023-10-31T00:19:36;6.97;;;5.82;;
64903;SDS011;51401;48.882;12.598;2023-10-31T00:22:01;8.23;;;6.07;;
64903;SDS011;51401;48.882;12.598;2023-10-31T00:24:26;7.00;;;5.97;;
64903;SDS011;51401;48.882;12.598;2023-10-31T00:26:52;8.52;;;6.20;;
64903;SDS011;51401;48.882;12.598;2023-10-31T00:29:17;7.73;;;6.10;;
64903;SDS011;51401;48.882;12.598;2023-10-31T00:31:42;6.00;;;5.40;;
64903;SDS011;51401;48.882;12.598;2023-10-31T00:34:08;6.70;;;6.00;;
64903;SDS011;51401;48.882;12.598;2023-10-31T00:36:34;6.03;;;4.85;;
64903;SDS011;51401;48.882;12.598;2023-10-31T00:38:59;6.70;;;5.22;;
64903;SDS011;51401;48.882;12.598;2023-10-31T00:41:25;6.80;;;5.43;;
64903;SDS011;51401;48.882;12.598;2023-10-31T00:43:50;6.22;;;4.40;;
64903;SDS011;51401;48.882;12.598;2023-10-31T00:46:15;4.78;;;3.92;;
64903;SDS011;51401;48.882;12.598;2023-10-31T00:48:41;5.35;;;4.30;;
64903;SDS011;51401;48.882;12.598;2023-10-31T00:51:06;6.63;;;3.92;;
64903;SDS011;51401;48.882;12.598;2023-10-31T00:53:31;5.22;;;4.00;;
64903;SDS011;51401;48.882;12.598;2023-10-31T00:55:57;3.88;;;3.20;;
64903;SDS011;51401;48.882;12.598;2023-10-31T00:58:22;4.10;;;3.53;;
64903;SDS011;51401;48.882;12.598;2023-10-31T01:00:48;4.57;;;3.60;;
64903;SDS011;51401;48.882;12.598;2023-10-31T01:03:13;3.70;;;3.40;;
64903;SDS011;51401;48.882;12.598;2023-10-31T01:05:38;3.10;;;2.38;;
64903;SDS011;51401;48.882;12.598;2023-10-31T01:08:04;3.30;;;2.40;;
64903;SDS011;51401;48.882;12.598;2023-10-31T01:10:29;3.33;;;2.22;;
64903;SDS011;51401;48.882;12.598;2023-10-31T01:12:54;2.78;;;2.15;;
64903;SDS011;51401;48.882;12.598;2023-10-31T01:15:20;3.13;;;2.10;;
64903;SDS011;51401;48.882;12.598;2023-10-31T01:17:45;3.03;;;1.60;;
64903;SDS011;51401;48.882;12.598;2023-10-31T01:20:11;2.95;;;2.05;;
64903;SDS011;51401;48.882;12.598;2023-10-31T01:22:36;3.10;;;2.17;;
64903;SDS011;51401;48.882;12.598;2023-10-31T01:25:02;2.20;;;1.80;;
64903;SDS011;51401;48.882;12.598;2023-10-31T01:27:30;2.28;;;2.08;;
64903;SDS011;51401;48.882;12.598;2023-10-31T01:29:56;2.28;;;1.60;;
64903;SDS011;51401;48.882;12.598;2023-10-31T01:32:21;2.55;;;2.10;;
64903;SDS011;51401;48.882;12.598;2023-10-31T01:34:46;2.38;;;1.80;;
64903;SDS011;51401;48.882;12.598;2023-10-31T01:37:12;2.35;;;1.80;;
64903;SDS011;51401;48.882;12.598;2023-10-31T01:39:39;3.03;;;1.98;;
64903;SDS011;51401;48.882;12.598;2023-10-31T01:42:04;2.22;;;1.88;;
64903;SDS011;51401;48.882;12.598;2023-10-31T01:44:29;2.00;;;1.80;;
64903;SDS011;51401;48.882;12.598;2023-10-31T01:46:55;2.10;;;1.90;;
64903;SDS011;51401;48.882;12.598;2023-10-31T01:49:20;2.00;;;1.70;;
64903;SDS011;51401;48.882;12.598;2023-10-31T01:51:46;2.97;;;1.90;;
64903;SDS011;51401;48.882;12.598;2023-10-31T01:54:12;2.00;;;1.75;;
64903;SDS011;51401;48.882;12.598;2023-10-31T01:56:38;2.03;;;1.83;;
64903;SDS011;51401;48.882;12.598;2023-10-31T01:59:07;2.17;;;1.90;;
64903;SDS011;51401;48.882;12.598;2023-10-31T02:01:34;2.72;;;2.03;;
64903;SDS011;51401;48.882;12.598;2023-10-31T02:04:04;2.28;;;1.83;;
64903;SDS011;51401;48.882;12.598;2023-10-31T02:06:30;2.28;;;1.45;;
64903;SDS011;51401;48.882;12.598;2023-10-31T02:08:55;3.00;;;1.53;;
64903;SDS011;51401;48.882;12.598;2023-10-31T02:11:21;1.88;;;1.15;;
64903;SDS011;51401;48.882;12.598;2023-10-31T02:13:46;1.20;;;1.10;;
64903;SDS011;51401;48.882;12.598;2023-10-31T02:16:11;2.13;;;1.38;;
64903;SDS011;51401;48.882;12.598;2023-10-31T02:18:36;1.93;;;1.20;;
64903;SDS011;51401;48.882;12.598;2023-10-31T02:21:03;2.33;;;1.10;;
64903;SDS011;51401;48.882;12.598;2023-10-31T02:23:28;1.23;;;1.10;;
64903;SDS011;51401;48.882;12.598;2023-10-31T02:25:53;1.55;;;1.15;;
64903;SDS011;51401;48.882;12.598;2023-10-31T02:28:19;1.55;;;1.00;;
64903;SDS011;51401;48.882;12.598;2023-10-31T02:30:44;1.02;;;0.80;;
64903;SDS011;51401;48.882;12.598;2023-10-31T02:33:10;1.30;;;1.00;;
64903;SDS011;51401;48.882;12.598;2023-10-31T02:35:35;1.38;;;1.10;;
64903;SDS011;51401;48.882;12.598;2023-10-31T02:38:00;1.40;;;1.00;;
64903;SDS011;51401;48.882;12.598;2023-10-31T02:40:26;1.88;;;1.05;;
64903;SDS011;51401;48.882;12.598;2023-10-31T02:42:51;1.00;;;0.90;;
64903;SDS011;51401;48.882;12.598;2023-10-31T02:45:17;1.20;;;0.80;;
64903;SDS011;51401;48.882;12.598;2023-10-31T02:47:42;1.30;;;1.00;;
64903;SDS011;51401;48.882;12.598;2023-10-31T02:50:07;0.82;;;0.80;;
64903;SDS011;51401;48.882;12.598;2023-10-31T02:52:33;2.60;;;1.00;;
64903;SDS011;51401;48.882;12.598;2023-10-31T02:54:58;1.25;;;1.00;;
64903;SDS011;51401;48.882;12.598;2023-10-31T02:57:23;1.52;;;1.20;;
64903;SDS011;51401;48.882;12.598;2023-10-31T02:59:49;2.08;;;1.20;;
64903;SDS011;51401;48.882;12.598;2023-10-31T03:02:14;1.20;;;0.90;;
64903;SDS011;51401;48.882;12.598;2023-10-31T03:04:39;1.60;;;0.98;;
64903;SDS011;51401;48.882;12.598;2023-10-31T03:07:05;1.25;;;0.95;;
64903;SDS011;51401;48.882;12.598;2023-10-31T03:09:30;2.83;;;1.00;;
64903;SDS011;51401;48.882;12.598;2023-10-31T03:11:55;1.10;;;0.98;;
64903;SDS011;51401;48.882;12.598;2023-10-31T03:14:21;1.33;;;0.87;;
64903;SDS011;51401;48.882;12.598;2023-10-31T03:16:46;1.10;;;1.00;;
64903;SDS011;51401;48.882;12.598;2023-10-31T03:19:11;1.73;;;1.10;;
64903;SDS011;51401;48.882;12.598;2023-10-31T03:21:37;1.85;;;1.15;;
64903;SDS011;51401;48.882;12.598;2023-10-31T03:24:03;0.65;;;0.65;;
64903;SDS011;51401;48.882;12.598;2023-10-31T03:26:28;2.92;;;1.05;;
64903;SDS011;51401;48.882;12.598;2023-10-31T03:28:53;0.95;;;0.80;;
64903;SDS011;51401;48.882;12.598;2023-10-31T03:31:22;0.75;;;0.70;;
64903;SDS011;51401;48.882;12.598;2023-10-31T03:33:48;0.90;;;0.80;;
64903;SDS011;51401;48.882;12.598;2023-10-31T03:36:13;0.82;;;0.60;;
64903;SDS011;51401;48.882;12.598;2023-10-31T03:38:38;1.23;;;1.00;;
64903;SDS011;51401;48.882;12.598;2023-10-31T03:41:03;1.58;;;0.85;;
64903;SDS011;51401;48.882;12.598;2023-10-31T03:43:29;0.93;;;0.50;;
64903;SDS011;51401;48.882;12.598;2023-10-31T03:45:54;1.13;;;0.93;;
64903;SDS011;51401;48.882;12.598;2023-10-31T03:48:20;1.13;;;0.82;;
64903;SDS011;51401;48.882;12.598;2023-10-31T03:50:45;1.60;;;0.88;;
64903;SDS011;51401;48.882;12.598;2023-10-31T03:53:10;0.57;;;0.57;;
64903;SDS011;51401;48.882;12.598;2023-10-31T03:55:35;1.85;;;0.90;;
64903;SDS011;51401;48.882;12.598;2023-10-31T03:58:01;0.52;;;0.52;;
64903;SDS011;51401;48.882;12.598;2023-10-31T04:00:26;1.00;;;0.75;;
64903;SDS011;51401;48.882;12.598;2023-10-31T04:02:51;1.02;;;0.88;;
64903;SDS011;51401;48.882;12.598;2023-10-31T04:05:17;0.98;;;0.75;;
64903;SDS011;51401;48.882;12.598;2023-10-31T04:07:43;1.40;;;0.90;;
64903;SDS011;51401;48.882;12.598;2023-10-31T04:10:09;1.08;;;0.60;;
64903;SDS011;51401;48.882;12.598;2023-10-31T04:12:34;1.42;;;0.90;;
64903;SDS011;51401;48.882;12.598;2023-10-31T04:15:00;1.52;;;0.77;;
64903;SDS011;51401;48.882;12.598;2023-10-31T04:17:26;0.82;;;0.70;;
64903;SDS011;51401;48.882;12.598;2023-10-31T04:19:51;0.95;;;0.80;;
64903;SDS011;51401;48.882;12.598;2023-10-31T04:22:16;1.38;;;0.85;;
64903;SDS011;51401;48.882;12.598;2023-10-31T04:24:45;1.23;;;0.77;;
64903;SDS011;51401;48.882;12.598;2023-10-31T04:27:10;0.70;;;0.60;;
64903;SDS011;51401;48.882;12.598;2023-10-31T04:29:35;1.65;;;0.90;;
64903;SDS011;51401;48.882;12.598;2023-10-31T04:32:01;1.20;;;0.80;;
64903;SDS011;51401;48.882;12.598;2023-10-31T04:34:26;2.95;;;0.75;;
64903;SDS011;51401;48.882;12.598;2023-10-31T04:36:51;0.85;;;0.70;;
64903;SDS011;51401;48.882;12.598;2023-10-31T04:39:17;0.85;;;0.73;;
64903;SDS011;51401;48.882;12.598;2023-10-31T04:41:42;2.20;;;0.90;;
64903;SDS011;51401;48.882;12.598;2023-10-31T04:44:07;0.88;;;0.70;;
64903;SDS011;51401;48.882;12.598;2023-10-31T04:46:32;0.95;;;0.80;;
64903;SDS011;51401;48.882;12.598;2023-10-31T04:48:58;1.13;;;0.80;;
64903;SDS011;51401;48.882;12.598;2023-10-31T04:51:24;0.85;;;0.70;;
64903;SDS011;51401;48.882;12.598;2023-10-31T04:53:49;0.98;;;0.90;;
64903;SDS011;51401;48.882;12.598;2023-10-31T04:56:15;1.10;;;0.82;;
64903;SDS011;51401;48.882;12.598;2023-10-31T04:58:41;1.00;;;0.90;;
64903;SDS011;51401;48.882;12.598;2023-10-31T05:01:13;1.10;;;1.00;;
64903;SDS011;51401;48.882;12.598;2023-10-31T05:03:41;2.13;;;1.23;;
64903;SDS011;51401;48.882;12.598;2023-10-31T05:06:06;1.40;;;1.30;;
64903;SDS011;51401;48.882;12.598;2023-10-31T05:08:32;1.40;;;1.15;;
64903;SDS011;51401;48.882;12.598;2023-10-31T05:10:57;1.10;;;1.00;;
64903;SDS011;51401;48.882;12.598;2023-10-31T05:13:23;1.95;;;1.08;;
64903;SDS011;51401;48.882;12.598;2023-10-31T05:15:48;1.00;;;0.90;;
64903;SDS011;51401;48.882;12.598;2023-10-31T05:18:13;1.67;;;0.90;;
64903;SDS011;51401;48.882;12.598;2023-10-31T05:20:39;1.88;;;1.00;;
64903;SDS011;51401;48.882;12.598;2023-10-31T05:23:04;1.30;;;0.93;;
64903;SDS011;51401;48.882;12.598;2023-10-31T05:25:30;1.42;;;1.10;;
64903;SDS011;51401;48.882;12.598;2023-10-31T05:27:56;1.20;;;0.90;;
64903;SDS011;51401;48.882;12.598;2023-10-31T05:30:21;1.25;;;0.88;;
64903;SDS011;51401;48.882;12.598;2023-10-31T05:32:46;0.88;;;0.80;;
64903;SDS011;51401;48.882;12.598;2023-10-31T05:35:12;3.23;;;1.03;;
64903;SDS011;51401;48.882;12.598;2023-10-31T05:37:37;0.70;;;0.60;;
64903;SDS011;51401;48.882;12.598;2023-10-31T05:40:02;0.85;;;0.80;;
64903;SDS011;51401;48.882;12.598;2023-10-31T05:42:28;1.08;;;0.88;;
64903;SDS011;51401;48.882;12.598;2023-10-31T05:44:54;1.13;;;0.88;;
64903;SDS011;51401;48.882;12.598;2023-10-31T05:47:20;1.45;;;0.88;;
64903;SDS011;51401;48.882;12.598;2023-10-31T05:49:46;1.83;;;1.00;;
64903;SDS011;51401;48.882;12.598;2023-10-31T05:52:11;1.63;;;0.90;;
64903;SDS011;51401;48.882;12.598;2023-10-31T05:54:36;0.77;;;0.70;;
64903;SDS011;51401;48.882;12.598;2023-10-31T05:57:02;0.88;;;0.73;;
64903;SDS011;51401;48.882;12.598;2023-10-31T05:59:28;0.98;;;0.85;;
64903;SDS011;51401;48.882;12.598;2023-10-31T06:01:53;1.45;;;0.90;;
64903;SDS011;51401;48.882;12.598;2023-10-31T06:04:18;1.10;;;0.80;;
64903;SDS011;51401;48.882;12.598;2023-10-31T06:06:44;1.00;;;0.88;;
64903;SDS011;51401;48.882;12.598;2023-10-31T06:09:09;1.95;;;0.80;;
64903;SDS011;51401;48.882;12.598;2023-10-31T06:11:35;1.23;;;0.60;;
64903;SDS011;51401;48.882;12.598;2023-10-31T06:14:01;1.25;;;0.90;;
64903;SDS011;51401;48.882;12.598;2023-10-31T06:16:26;1.15;;;0.90;;
64903;SDS011;51401;48.882;12.598;2023-10-31T06:18:51;1.77;;;0.80;;
64903;SDS011;51401;48.882;12.598;2023-10-31T06:21:16;1.00;;;0.77;;
64903;SDS011;51401;48.882;12.598;2023-10-31T06:23:42;2.35;;;0.80;;
64903;SDS011;51401;48.882;12.598;2023-10-31T06:26:10;0.95;;;0.70;;
64903;SDS011;51401;48.882;12.598;2023-10-31T06:28:35;0.80;;;0.50;;
64903;SDS011;51401;48.882;12.598;2023-10-31T06:31:02;0.70;;;0.63;;
64903;SDS011;51401;48.882;12.598;2023-10-31T06:33:27;2.15;;;0.77;;
64903;SDS011;51401;48.882;12.598;2023-10-31T06:35:53;1.20;;;0.98;;
64903;SDS011;51401;48.882;12.598;2023-10-31T06:38:18;1.30;;;0.73;;
64903;SDS011;51401;48.882;12.598;2023-10-31T06:40:44;2.22;;;0.90;;
64903;SDS011;51401;48.882;12.598;2023-10-31T06:43:09;1.17;;;0.85;;
64903;SDS011;51401;48.882;12.598;2023-10-31T06:45:35;1.08;;;0.85;;
64903;SDS011;51401;48.882;12.598;2023-10-31T06:48:00;1.13;;;0.88;;
64903;SDS011;51401;48.882;12.598;2023-10-31T06:50:25;1.13;;;0.88;;
64903;SDS011;51401;48.882;12.598;2023-10-31T06:52:51;1.55;;;0.80;;
64903;SDS011;51401;48.882;12.598;2023-10-31T06:55:16;1.80;;;1.02;;
64903;SDS011;51401;48.882;12.598;2023-10-31T06:57:41;1.23;;;0.93;;
64903;SDS011;51401;48.882;12.598;2023-10-31T07:00:08;1.63;;;1.05;;
64903;SDS011;51401;48.882;12.598;2023-10-31T07:02:35;1.00;;;0.90;;
64903;SDS011;51401;48.882;12.598;2023-10-31T07:05:00;1.13;;;0.88;;
64903;SDS011;51401;48.882;12.598;2023-10-31T07:07:28;1.80;;;1.00;;
64903;SDS011;51401;48.882;12.598;2023-10-31T07:09:53;2.22;;;1.10;;
64903;SDS011;51401;48.882;12.598;2023-10-31T07:12:18;1.50;;;1.10;;
64903;SDS011;51401;48.882;12.598;2023-10-31T07:14:44;1.00;;;0.90;;
64903;SDS011;51401;48.882;12.598;2023-10-31T07:17:09;1.45;;;0.95;;
64903;SDS011;51401;48.882;12.598;2023-10-31T07:19:34;1.05;;;0.85;;
64903;SDS011;51401;48.882;12.598;2023-10-31T07:21:59;1.13;;;0.90;;
64903;SDS011;51401;48.882;12.598;2023-10-31T07:24:25;2.23;;;1.23;;
64903;SDS011;51401;48.882;12.598;2023-10-31T07:26:52;2.38;;;0.93;;
64903;SDS011;51401;48.882;12.598;2023-10-31T07:29:17;1.60;;;1.20;;
64903;SDS011;51401;48.882;12.598;2023-10-31T07:31:42;1.80;;;1.63;;
64903;SDS011;51401;48.882;12.598;2023-10-31T07:34:08;1.63;;;1.27;;
64903;SDS011;51401;48.882;12.598;2023-10-31T07:36:36;1.90;;;1.27;;
64903;SDS011;51401;48.882;12.598;2023-10-31T07:39:01;1.77;;;1.20;;
64903;SDS011;51401;48.882;12.598;2023-10-31T07:41:27;1.67;;;1.05;;
64903;SDS011;51401;48.882;12.598;2023-10-31T07:43:53;1.20;;;1.10;;
64903;SDS011;51401;48.882;12.598;2023-10-31T07:46:18;1.77;;;1.03;;
64903;SDS011;51401;48.882;12.598;2023-10-31T07:48:44;3.15;;;1.00;;
64903;SDS011;51401;48.882;12.598;2023-10-31T07:51:09;1.38;;;0.95;;
64903;SDS011;51401;48.882;12.598;2023-10-31T07:53:35;2.00;;;1.00;;
64903;SDS011;51401;48.882;12.598;2023-10-31T07:56:00;1.25;;;0.75;;
64903;SDS011;51401;48.882;12.598;2023-10-31T07:58:25;2.58;;;1.00;;
64903;SDS011;51401;48.882;12.598;2023-10-31T08:00:50;1.30;;;1.10;;
64903;SDS011;51401;48.882;12.598;2023-10-31T08:03:16;2.25;;;1.00;;
64903;SDS011;51401;48.882;12.598;2023-10-31T08:05:41;2.35;;;1.15;;
64903;SDS011;51401;48.882;12.598;2023-10-31T08:08:07;1.70;;;1.20;;
64903;SDS011;51401;48.882;12.598;2023-10-31T08:10:33;1.65;;;1.13;;
64903;SDS011;51401;48.882;12.598;2023-10-31T08:12:59;1.83;;;1.20;;
64903;SDS011;51401;48.882;12.598;2023-10-31T08:15:24;1.83;;;1.30;;
64903;SDS011;51401;48.882;12.598;2023-10-31T08:17:50;2.03;;;1.35;;
64903;SDS011;51401;48.882;12.598;2023-10-31T08:20:15;1.77;;;1.40;;
64903;SDS011;51401;48.882;12.598;2023-10-31T08:22:40;2.88;;;1.70;;
64903;SDS011;51401;48.882;12.598;2023-10-31T08:25:07;2.00;;;1.80;;
64903;SDS011;51401;48.882;12.598;2023-10-31T08:27:33;4.95;;;2.70;;
64903;SDS011;51401;48.882;12.598;2023-10-31T08:29:59;2.15;;;1.77;;
64903;SDS011;51401;48.882;12.598;2023-10-31T08:32:24;2.63;;;2.03;;
64903;SDS011;51401;48.882;12.598;2023-10-31T08:34:49;2.17;;;1.98;;
64903;SDS011;51401;48.882;12.598;2023-10-31T08:37:15;1.95;;;1.75;;
64903;SDS011;51401;48.882;12.598;2023-10-31T08:39:40;2.35;;;1.80;;
64903;SDS011;51401;48.882;12.598;2023-10-31T08:42:05;1.97;;;1.60;;
64903;SDS011;51401;48.882;12.598;2023-10-31T08:44:31;2.80;;;2.00;;
64903;SDS011;51401;48.882;12.598;2023-10-31T08:46:58;2.90;;;2.47;;
64903;SDS011;51401;48.882;12.598;2023-10-31T08:49:24;3.55;;;2.38;;
64903;SDS011;51401;48.882;12.598;2023-10-31T08:51:49;4.13;;;2.63;;
64903;SDS011;51401;48.882;12.598;2023-10-31T08:54:14;2.97;;;1.98;;
64903;SDS011;51401;48.882;12.598;2023-10-31T08:56:39;3.92;;;2.63;;
64903;SDS011;51401;48.882;12.598;2023-10-31T08:59:05;2.60;;;2.35;;
64903;SDS011;51401;48.882;12.598;2023-10-31T09:01:30;2.58;;;2.03;;
64903;SDS011;51401;48.882;12.598;2023-10-31T09:03:55;3.22;;;2.78;;
64903;SDS011;51401;48.882;12.598;2023-10-31T09:06:23;2.70;;;1.95;;
64903;SDS011;51401;48.882;12.598;2023-10-31T09:08:48;2.10;;;1.88;;
64903;SDS011;51401;48.882;12.598;2023-10-31T09:11:14;2.20;;;1.60;;
64903;SDS011;51401;48.882;12.598;2023-10-31T09:13:40;1.95;;;1.73;;
64903;SDS011;51401;48.882;12.598;2023-10-31T09:16:05;1.75;;;1.20;;
64903;SDS011;51401;48.882;12.598;2023-10-31T09:18:31;2.33;;;1.13;;
64903;SDS011;51401;48.882;12.598;2023-10-31T09:20:56;2.38;;;1.73;;
64903;SDS011;51401;48.882;12.598;2023-10-31T09:23:22;3.45;;;1.45;;
64903;SDS011;51401;48.882;12.598;2023-10-31T09:25:47;1.88;;;1.40;;
64903;SDS011;51401;48.882;12.598;2023-10-31T09:28:13;1.75;;;1.27;;
64903;SDS011;51401;48.882;12.598;2023-10-31T09:30:38;2.55;;;1.30;;
64903;SDS011;51401;48.882;12.598;2023-10-31T09:33:04;1.52;;;1.25;;
64903;SDS011;51401;48.882;12.598;2023-10-31T09:35:29;4.30;;;1.33;;
64903;SDS011;51401;48.882;12.598;2023-10-31T09:37:54;1.55;;;1.10;;
64903;SDS011;51401;48.882;12.598;2023-10-31T09:40:20;2.55;;;1.30;;
64903;SDS011;51401;48.882;12.598;2023-10-31T09:42:46;3.58;;;1.85;;
64903;SDS011;51401;48.882;12.598;2023-10-31T09:45:12;1.60;;;1.40;;
64903;SDS011;51401;48.882;12.598;2023-10-31T09:47:38;1.77;;;1.27;;
64903;SDS011;51401;48.882;12.598;2023-10-31T09:50:05;2.47;;;1.33;;
64903;SDS011;51401;48.882;12.598;2023-10-31T09:52:31;2.47;;;1.50;;
64903;SDS011;51401;48.882;12.598;2023-10-31T09:54:57;3.63;;;1.10;;
64903;SDS011;51401;48.882;12.598;2023-10-31T09:57:23;2.75;;;1.10;;
64903;SDS011;51401;48.882;12.598;2023-10-31T09:59:51;0.88;;;0.70;;
64903;SDS011;51401;48.882;12.598;2023-10-31T10:02:16;3.03;;;0.80;;
64903;SDS011;51401;48.882;12.598;2023-10-31T10:04:41;1.43;;;0.93;;
64903;SDS011;51401;48.882;12.598;2023-10-31T10:07:07;1.38;;;1.00;;
64903;SDS011;51401;48.882;12.598;2023-10-31T10:09:32;1.63;;;0.80;;
64903;SDS011;51401;48.882;12.598;2023-10-31T10:12:01;1.38;;;0.90;;
64903;SDS011;51401;48.882;12.598;2023-10-31T10:14:27;0.85;;;0.75;;
64903;SDS011;51401;48.882;12.598;2023-10-31T10:16:53;2.10;;;1.10;;
64903;SDS011;51401;48.882;12.598;2023-10-31T10:19:21;1.52;;;1.10;;
64903;SDS011;51401;48.882;12.598;2023-10-31T10:21:54;1.02;;;0.88;;
64903;SDS011;51401;48.882;12.598;2023-10-31T10:24:21;1.25;;;0.90;;
64903;SDS011;51401;48.882;12.598;2023-10-31T10:26:48;1.23;;;0.77;;
64903;SDS011;51401;48.882;12.598;2023-10-31T10:29:14;1.20;;;0.82;;
64903;SDS011;51401;48.882;12.598;2023-10-31T10:31:40;1.98;;;0.93;;
64903;SDS011;51401;48.882;12.598;2023-10-31T10:34:06;2.08;;;0.73;;
64903;SDS011;51401;48.882;12.598;2023-10-31T10:36:32;0.98;;;0.80;;
64903;SDS011;51401;48.882;12.598;2023-10-31T10:38:59;1.17;;;0.80;;
64903;SDS011;51401;48.882;12.598;2023-10-31T10:41:25;1.60;;;0.88;;
64903;SDS011;51401;48.882;12.598;2023-10-31T10:44:04;1.42;;;0.90;;
64903;SDS011;51401;48.882;12.598;2023-10-31T10:46:34;1.10;;;0.67;;
64903;SDS011;51401;48.882;12.598;2023-10-31T10:49:03;1.25;;;0.73;;
64903;SDS011;51401;48.882;12.598;2023-10-31T10:51:40;1.10;;;0.90;;
64903;SDS011;51401;48.882;12.598;2023-10-31T10:54:26;1.27;;;0.80;;
64903;SDS011;51401;48.882;12.598;2023-10-31T10:57:21;1.48;;;0.93;;
64903;SDS011;51401;48.882;12.598;2023-10-31T10:59:57;1.52;;;1.08;;
64903;SDS011;51401;48.882;12.598;2023-10-31T11:02:25;2.70;;;0.90;;
64903;SDS011;51401;48.882;12.598;2023-10-31T11:04:52;2.40;;;1.58;;
64903;SDS011;51401;48.882;12.598;2023-10-31T11:07:18;2.70;;;1.23;;
64903;SDS011;51401;48.882;12.598;2023-10-31T11:09:45;1.00;;;0.82;;
64903;SDS011;51401;48.882;12.598;2023-10-31T11:12:12;3.47;;;1.50;;
64903;SDS011;51401;48.882;12.598;2023-10-31T11:14:38;2.28;;;1.33;;
64903;SDS011;51401;48.882;12.598;2023-10-31T11:17:14;3.20;;;1.50;;
64903;SDS011;51401;48.882;12.598;2023-10-31T11:19:53;3.83;;;1.88;;
64903;SDS011;51401;48.882;12.598;2023-10-31T11:22:20;3.45;;;1.85;;
64903;SDS011;51401;48.882;12.598;2023-10-31T11:24:47;4.78;;;1.95;;
64903;SDS011;51401;48.882;12.598;2023-10-31T11:27:14;0.88;;;0.88;;
64903;SDS011;51401;48.882;12.598;2023-10-31T11:29:41;2.15;;;1.23;;
64903;SDS011;51401;48.882;12.598;2023-10-31T11:32:10;1.98;;;1.13;;
64903;SDS011;51401;48.882;12.598;2023-10-31T11:34:37;1.17;;;0.93;;
64903;SDS011;51401;48.882;12.598;2023-10-31T11:37:19;1.55;;;0.82;;
64903;SDS011;51401;48.882;12.598;2023-10-31T11:42:40;1.35;;;0.90;;
64903;SDS011;51401;48.882;12.598;2023-10-31T11:45:09;1.65;;;0.80;;
64903;SDS011;51401;48.882;12.598;2023-10-31T11:47:51;0.70;;;0.68;;
64903;SDS011;51401;48.882;12.598;2023-10-31T11:50:17;3.65;;;0.80;;
64903;SDS011;51401;48.882;12.598;2023-10-31T11:52:43;2.05;;;0.90;;
64903;SDS011;51401;48.882;12.598;2023-10-31T11:55:12;1.52;;;0.80;;
64903;SDS011;51401;48.882;12.598;2023-10-31T11:57:38;1.02;;;0.80;;
64903;SDS011;51401;48.882;12.598;2023-10-31T12:00:04;2.55;;;0.80;;
64903;SDS011;51401;48.882;12.598;2023-10-31T12:02:32;1.80;;;0.90;;
64903;SDS011;51401;48.882;12.598;2023-10-31T12:05:10;1.15;;;0.52;;
64903;SDS011;51401;48.882;12.598;2023-10-31T12:07:43;0.90;;;0.80;;
64903;SDS011;51401;48.882;12.598;2023-10-31T12:10:09;1.27;;;0.80;;
64903;SDS011;51401;48.882;12.598;2023-10-31T12:12:35;3.05;;;1.10;;
64903;SDS011;51401;48.882;12.598;2023-10-31T12:15:07;0.70;;;0.65;;
64903;SDS011;51401;48.882;12.598;2023-10-31T12:17:33;1.10;;;0.75;;
64903;SDS011;51401;48.882;12.598;2023-10-31T12:20:03;1.38;;;0.82;;
64903;SDS011;51401;48.882;12.598;2023-10-31T12:22:32;1.63;;;1.00;;
64903;SDS011;51401;48.882;12.598;2023-10-31T12:25:03;1.50;;;1.00;;
64903;SDS011;51401;48.882;12.598;2023-10-31T12:27:43;1.73;;;1.00;;
64903;SDS011;51401;48.882;12.598;2023-10-31T12:30:18;1.25;;;0.90;;
64903;SDS011;51401;48.882;12.598;2023-10-31T12:32:44;2.08;;;1.10;;
64903;SDS011;51401;48.882;12.598;2023-10-31T12:35:11;1.38;;;1.10;;
64903;SDS011;51401;48.882;12.598;2023-10-31T12:37:45;2.03;;;0.88;;
64903;SDS011;51401;48.882;12.598;2023-10-31T12:42:47;2.33;;;1.25;;
64903;SDS011;51401;48.882;12.598;2023-10-31T12:45:14;1.42;;;1.02;;
64903;SDS011;51401;48.882;12.598;2023-10-31T12:47:40;2.25;;;1.10;;
64903;SDS011;51401;48.882;12.598;2023-10-31T12:52:51;1.95;;;0.90;;
64903;SDS011;51401;48.882;12.598;2023-10-31T12:55:21;1.88;;;0.90;;
64903;SDS011;51401;48.882;12.598;2023-10-31T12:57:47;1.00;;;0.80;;
64903;SDS011;51401;48.882;12.598;2023-10-31T13:00:14;0.95;;;0.73;;
64903;SDS011;51401;48.882;12.598;2023-10-31T13:02:43;1.75;;;1.00;;
64903;SDS011;51401;48.882;12.598;2023-10-31T13:05:12;0.68;;;0.68;;
64903;SDS011;51401;48.882;12.598;2023-10-31T13:07:41;1.35;;;0.65;;
64903;SDS011;51401;48.882;12.598;2023-10-31T13:10:12;1.58;;;0.70;;
64903;SDS011;51401;48.882;12.598;2023-10-31T13:12:42;1.27;;;0.60;;
64903;SDS011;51401;48.882;12.598;2023-10-31T13:15:08;0.88;;;0.70;;
64903;SDS011;51401;48.882;12.598;2023-10-31T13:17:35;2.65;;;1.05;;
64903;SDS011;51401;48.882;12.598;2023-10-31T13:20:03;0.57;;;0.57;;
64903;SDS011;51401;48.882;12.598;2023-10-31T13:22:29;1.98;;;0.90;;
64903;SDS011;51401;48.882;12.598;2023-10-31T13:24:54;2.33;;;1.07;;
64903;SDS011;51401;48.882;12.598;2023-10-31T13:27:20;2.63;;;1.02;;
64903;SDS011;51401;48.882;12.598;2023-10-31T13:29:45;2.55;;;0.80;;
64903;SDS011;51401;48.882;12.598;2023-10-31T13:32:13;1.20;;;0.73;;
64903;SDS011;51401;48.882;12.598;2023-10-31T13:34:38;1.87;;;0.93;;
64903;SDS011;51401;48.882;12.598;2023-10-31T13:37:03;2.00;;;1.17;;
64903;SDS011;51401;48.882;12.598;2023-10-31T13:39:29;2.65;;;1.10;;
64903;SDS011;51401;48.882;12.598;2023-10-31T13:41:54;1.10;;;0.90;;
64903;SDS011;51401;48.882;12.598;2023-10-31T13:44:19;1.70;;;0.87;;
64903;SDS011;51401;48.882;12.598;2023-10-31T13:46:44;1.48;;;0.93;;
64903;SDS011;51401;48.882;12.598;2023-10-31T13:49:10;1.30;;;0.90;;
64903;SDS011;51401;48.882;12.598;2023-10-31T13:51:37;3.10;;;1.02;;
64903;SDS011;51401;48.882;12.598;2023-10-31T13:54:03;1.30;;;1.10;;
64903;SDS011;51401;48.882;12.598;2023-10-31T13:56:29;1.77;;;1.30;;
64903;SDS011;51401;48.882;12.598;2023-10-31T13:58:54;1.80;;;1.07;;
64903;SDS011;51401;48.882;12.598;2023-10-31T14:01:19;1.40;;;1.30;;
64903;SDS011;51401;48.882;12.598;2023-10-31T14:03:49;1.40;;;1.30;;
64903;SDS011;51401;48.882;12.598;2023-10-31T14:06:15;2.13;;;1.25;;
64903;SDS011;51401;48.882;12.598;2023-10-31T14:08:40;3.38;;;1.60;;
64903;SDS011;51401;48.882;12.598;2023-10-31T14:11:05;3.25;;;2.40;;
64903;SDS011;51401;48.882;12.598;2023-10-31T14:13:31;3.00;;;1.42;;
64903;SDS011;51401;48.882;12.598;2023-10-31T14:15:56;2.13;;;1.60;;
64903;SDS011;51401;48.882;12.598;2023-10-31T14:18:21;3.53;;;1.30;;
64903;SDS011;51401;48.882;12.598;2023-10-31T14:20:47;3.30;;;1.70;;
64903;SDS011;51401;48.882;12.598;2023-10-31T14:23:12;1.23;;;1.10;;
64903;SDS011;51401;48.882;12.598;2023-10-31T14:25:37;2.25;;;1.20;;
64903;SDS011;51401;48.882;12.598;2023-10-31T14:28:03;1.90;;;1.10;;
64903;SDS011;51401;48.882;12.598;2023-10-31T14:30:29;1.23;;;1.13;;
64903;SDS011;51401;48.882;12.598;2023-10-31T14:32:54;2.00;;;1.20;;
64903;SDS011;51401;48.882;12.598;2023-10-31T14:35:20;2.97;;;1.30;;
64903;SDS011;51401;48.882;12.598;2023-10-31T14:37:45;1.20;;;1.10;;